Time;durP1;ratioP1;P1;durP2;ratioP2;P2;SDS_P1;SDS_P2;PMS_P1;PMS_P2;Temp;Humidity;BMP_temperature;BMP_pressure;BME280_temperature;BME280_humidity;BME280_pressure;Samples;Min_cycle;Max_cycle;Signal;HPM_P1;HPM_P2
2022/06/03 00:01:30;;;;;;;9.85;6.00;;;;;;;12.84;68.00;101866.41;5049466;28;20123;-71
2022/06/03 00:04:26;;;;;;;8.40;6.15;;;;;;;12.81;68.15;101861.41;5051288;28;20028;-71
2022/06/03 00:07:08;;;;;;;8.20;5.40;;;;;;;12.77;68.19;101860.97;5051078;28;20090;-71
2022/06/03 00:10:12;;;;;;;10.10;6.40;;;;;;;12.76;67.57;101861.16;5051019;28;20104;-71
2022/06/03 00:12:57;;;;;;;9.80;5.70;;;;;;;12.70;68.69;101858.19;5047788;28;20041;-71
2022/06/03 00:16:00;;;;;;;9.27;6.40;;;;;;;12.66;68.87;101859.59;5050749;28;20033;-71
2022/06/03 00:18:41;;;;;;;14.55;7.40;;;;;;;12.60;69.05;101854.13;5050916;28;20036;-71
2022/06/03 00:21:26;;;;;;;8.95;5.43;;;;;;;12.63;69.01;101859.16;5050817;28;20099;-71
2022/06/03 00:24:13;;;;;;;12.57;7.57;;;;;;;12.60;69.18;101855.00;5057277;28;20036;-71
2022/06/03 00:26:58;;;;;;;9.48;6.07;;;;;;;12.59;69.37;101855.16;5051842;28;20025;-71
2022/06/03 00:29:37;;;;;;;9.95;6.05;;;;;;;12.58;69.53;101857.03;5066555;28;20033;-71
2022/06/03 00:32:09;;;;;;;8.90;6.18;;;;;;;12.56;69.69;101848.34;5051351;28;20035;-71
2022/06/03 00:34:53;;;;;;;9.70;5.93;;;;;;;12.56;69.48;101850.19;5058117;28;20150;-71
2022/06/03 00:37:34;;;;;;;8.90;6.28;;;;;;;12.55;69.39;101852.03;5069640;28;20166;-71
2022/06/03 00:40:27;;;;;;;8.60;5.88;;;;;;;12.53;69.33;101851.38;5069615;28;20028;-72
2022/06/03 00:42:58;;;;;;;9.10;6.50;;;;;;;12.50;69.06;101847.25;5069581;28;20032;-71
2022/06/03 00:45:45;;;;;;;9.02;6.70;;;;;;;12.50;69.07;101849.09;5069471;28;20020;-72
2022/06/03 00:48:25;;;;;;;10.60;6.80;;;;;;;12.50;69.46;101857.13;5069653;28;20029;-71
2022/06/03 00:51:13;;;;;;;9.68;6.00;;;;;;;12.46;69.64;101850.47;5069367;28;20017;-71
2022/06/03 00:54:02;;;;;;;8.80;6.00;;;;;;;12.44;69.76;101847.13;5069524;28;20569;-71
2022/06/03 00:56:56;;;;;;;9.35;6.20;;;;;;;12.42;69.87;101846.50;5051456;28;20499;-71
2022/06/03 00:59:53;;;;;;;8.30;6.18;;;;;;;12.39;69.48;101836.16;5050197;28;20112;-71
2022/06/03 01:02:24;;;;;;;10.98;7.00;;;;;;;12.41;70.22;101842.16;5050273;28;20435;-71
2022/06/03 01:05:04;;;;;;;9.00;5.75;;;;;;;12.39;69.59;101842.34;5050181;28;20590;-72
2022/06/03 01:07:50;;;;;;;10.30;6.15;;;;;;;12.37;70.16;101836.34;5050061;28;20039;-72
2022/06/03 01:10:43;;;;;;;8.98;5.97;;;;;;;12.37;70.37;101833.69;5050029;28;20096;-71
2022/06/03 01:13:12;;;;;;;10.15;6.47;;;;;;;12.37;70.25;101833.69;5049528;28;20032;-71
2022/06/03 01:15:52;;;;;;;9.82;6.22;;;;;;;12.39;69.80;101838.81;5049996;28;20056;-71
2022/06/03 01:18:37;;;;;;;9.85;6.80;;;;;;;12.40;69.70;101829.81;5049800;28;20141;-71
2022/06/03 01:21:12;;;;;;;10.55;6.65;;;;;;;12.41;70.00;101831.44;5058718;28;20486;-71
2022/06/03 01:24:16;;;;;;;9.80;6.63;;;;;;;12.42;69.94;101830.47;5069047;28;20453;-71
2022/06/03 01:27:00;;;;;;;8.70;6.25;;;;;;;12.41;70.25;101828.78;5057838;28;20054;-71
2022/06/03 01:29:31;;;;;;;8.25;5.40;;;;;;;12.39;69.89;101817.41;5068936;28;20098;-71
2022/06/03 01:32:18;;;;;;;8.35;6.22;;;;;;;12.45;70.18;101822.06;5068845;28;20098;-70
2022/06/03 01:35:20;;;;;;;11.50;6.43;;;;;;;12.44;69.64;101820.38;5068899;28;20059;-71
2022/06/03 01:37:55;;;;;;;8.23;5.95;;;;;;;12.45;69.49;101814.84;5037106;28;20040;-71
2022/06/03 01:40:30;;;;;;;9.40;6.53;;;;;;;12.47;69.35;101811.97;5068795;28;20025;-71
2022/06/03 01:43:08;;;;;;;9.20;6.05;;;;;;;12.47;69.31;101810.16;5068716;28;20037;-72
2022/06/03 01:45:52;;;;;;;10.00;6.55;;;;;;;12.50;69.07;101811.63;5068864;28;20047;-71
2022/06/03 01:48:44;;;;;;;9.27;6.20;;;;;;;12.50;69.24;101808.94;5068767;28;20032;-72
2022/06/03 01:51:24;;;;;;;9.25;5.97;;;;;;;12.48;69.35;101805.63;5068571;28;20016;-71
2022/06/03 01:54:34;;;;;;;9.32;6.20;;;;;;;12.51;69.15;101807.94;5061184;28;20071;-71
2022/06/03 01:57:18;;;;;;;9.20;6.25;;;;;;;12.50;69.07;101791.03;5049560;28;20424;-71
2022/06/03 02:00:11;;;;;;;8.23;5.75;;;;;;;12.51;68.92;101794.53;5068473;28;20451;-71
2022/06/03 02:02:39;;;;;;;9.90;6.75;;;;;;;12.52;69.28;101795.38;5064003;28;20041;-71
2022/06/03 02:05:28;;;;;;;9.38;6.22;;;;;;;12.51;69.31;101799.91;5031275;28;20423;-71
2022/06/03 02:08:12;;;;;;;9.63;6.50;;;;;;;12.53;69.21;101794.38;5049323;28;20056;-71
2022/06/03 02:11:04;;;;;;;9.20;6.45;;;;;;;12.50;69.40;101784.88;5049060;28;20117;-71
2022/06/03 02:13:58;;;;;;;11.15;6.18;;;;;;;12.48;69.54;101789.56;5048565;28;20029;-71
2022/06/03 02:16:47;;;;;;;11.18;6.40;;;;;;;12.47;69.61;101796.78;5049007;28;20029;-71
2022/06/03 02:19:30;;;;;;;8.10;5.70;;;;;;;12.43;69.81;101787.44;5007690;28;20041;-71
2022/06/03 02:22:10;;;;;;;10.70;6.80;;;;;;;12.41;69.57;101786.78;5049175;28;20029;-71
2022/06/03 02:25:03;;;;;;;9.15;5.47;;;;;;;12.42;69.84;101795.69;5061364;28;20043;-71
2022/06/03 02:27:47;;;;;;;12.63;7.10;;;;;;;12.41;69.81;101794.00;5072097;28;20078;-71
2022/06/03 02:30:37;;;;;;;10.23;6.43;;;;;;;12.39;69.50;101783.50;5072094;28;20021;-71
2022/06/03 02:33:36;;;;;;;7.55;5.63;;;;;;;12.38;69.98;101786.34;5072128;28;20032;-71
2022/06/03 02:36:10;;;;;;;9.48;6.78;;;;;;;12.36;70.48;101796.41;5072028;28;20024;-71
2022/06/03 02:39:09;;;;;;;10.07;6.93;;;;;;;12.36;70.40;101783.03;5053810;28;20036;-71
2022/06/03 02:41:38;;;;;;;10.48;6.63;;;;;;;12.33;70.35;101778.88;5071868;28;20423;-71
2022/06/03 02:44:42;;;;;;;11.90;7.97;;;;;;;12.32;70.25;101769.19;5071840;28;20514;-72
2022/06/03 02:47:38;;;;;;;10.65;6.30;;;;;;;12.29;70.58;101774.91;5041893;28;20051;-71
2022/06/03 02:50:22;;;;;;;8.95;6.32;;;;;;;12.26;70.61;101776.13;5071868;28;20021;-71
2022/06/03 02:53:08;;;;;;;9.90;6.53;;;;;;;12.25;70.46;101774.44;5071361;28;20032;-71
2022/06/03 02:55:58;;;;;;;9.13;5.97;;;;;;;12.21;70.91;101775.03;5071027;28;20048;-71
2022/06/03 02:58:55;;;;;;;9.95;6.78;;;;;;;12.19;70.98;101771.69;5071372;28;20115;-71
2022/06/03 03:01:48;;;;;;;10.27;6.38;;;;;;;12.15;71.26;101776.56;5072840;28;20072;-71
2022/06/03 03:04:30;;;;;;;11.48;6.53;;;;;;;12.09;70.93;101776.47;5067227;28;20021;-71
2022/06/03 03:07:09;;;;;;;8.65;6.28;;;;;;;11.99;71.56;101763.38;5071183;28;20048;-71
2022/06/03 03:09:51;;;;;;;11.60;8.07;;;;;;;12.04;71.71;101777.03;5071092;28;20495;-71
2022/06/03 03:12:37;;;;;;;10.85;5.95;;;;;;;11.97;72.17;101768.06;5053324;28;20025;-71
2022/06/03 03:15:03;;;;;;;11.27;6.93;;;;;;;11.98;72.02;101775.91;5071557;28;20036;-71
2022/06/03 03:18:07;;;;;;;9.20;6.63;;;;;;;11.95;71.42;101765.59;5071286;28;20119;-71
2022/06/03 03:20:53;;;;;;;11.50;6.50;;;;;;;11.94;72.08;101771.94;4969938;28;20035;-71
2022/06/03 03:23:43;;;;;;;10.50;7.28;;;;;;;11.92;72.03;101775.81;5065807;28;20070;-71
2022/06/03 03:26:30;;;;;;;10.75;6.82;;;;;;;11.90;72.38;101773.34;5071037;28;20081;-71
2022/06/03 03:29:08;;;;;;;10.68;7.03;;;;;;;11.88;72.39;101769.19;5070713;28;20055;-71
2022/06/03 03:31:39;;;;;;;10.15;6.53;;;;;;;11.85;72.56;101770.34;5070686;28;20024;-71
2022/06/03 03:34:25;;;;;;;8.82;6.63;;;;;;;11.82;72.70;101754.69;5070942;28;20025;-71
2022/06/03 03:37:15;;;;;;;11.13;6.90;;;;;;;11.75;72.82;101761.75;5029251;28;20041;-72
2022/06/03 03:40:02;;;;;;;10.13;7.05;;;;;;;11.75;73.08;101759.09;5070396;28;20044;-71
2022/06/03 03:42:56;;;;;;;12.18;7.60;;;;;;;11.73;73.02;101761.09;5070908;28;20058;-71
2022/06/03 03:45:59;;;;;;;10.15;6.68;;;;;;;11.70;73.40;101759.63;5070158;28;20487;-71
2022/06/03 03:49:09;;;;;;;11.85;7.15;;;;;;;11.69;73.13;101755.31;5057897;28;20068;-71
2022/06/03 03:51:59;;;;;;;12.85;7.07;;;;;;;11.66;73.91;101749.47;5050888;28;20025;-71
2022/06/03 03:54:55;;;;;;;10.05;6.53;;;;;;;11.63;74.03;101753.34;5051087;28;20079;-71
2022/06/03 03:57:56;;;;;;;10.18;6.57;;;;;;;11.61;73.23;101750.88;5051419;28;20055;-71
2022/06/03 04:00:36;;;;;;;14.25;7.78;;;;;;;11.60;74.26;101748.34;5051034;28;20833;-71
2022/06/03 04:03:10;;;;;;;11.88;7.18;;;;;;;11.62;74.38;101749.00;5050822;28;20033;-72
2022/06/03 04:05:54;;;;;;;10.38;6.97;;;;;;;11.62;74.30;101755.19;5050969;28;20071;-71
2022/06/03 04:08:56;;;;;;;12.95;7.40;;;;;;;11.65;73.85;101747.81;5051068;28;20456;-71
2022/06/03 04:11:48;;;;;;;11.70;7.90;;;;;;;11.75;73.73;101749.22;5051224;28;20025;-71
2022/06/03 04:14:48;;;;;;;10.65;7.40;;;;;;;11.76;73.54;101742.88;5050832;28;20021;-71
2022/06/03 04:17:38;;;;;;;12.80;6.85;;;;;;;11.76;74.20;101752.72;5050860;28;20074;-71
2022/06/03 04:20:25;;;;;;;11.77;7.35;;;;;;;11.76;73.74;101748.22;5050423;28;20059;-71
2022/06/03 04:23:35;;;;;;;11.73;7.38;;;;;;;11.80;73.46;101749.50;5050690;28;20024;-71
2022/06/03 04:26:47;;;;;;;12.63;7.45;;;;;;;11.87;73.51;101741.63;4978788;28;20043;-71
2022/06/03 04:29:41;;;;;;;10.75;6.80;;;;;;;11.92;73.86;101741.06;5019593;28;20037;-71
2022/06/03 04:32:59;;;;;;;12.82;7.32;;;;;;;11.98;73.11;101735.81;5064655;28;20020;-71
2022/06/03 04:35:33;;;;;;;11.90;6.63;;;;;;;12.06;73.67;101732.22;5043228;28;20039;-72
2022/06/03 04:37:59;;;;;;;10.23;6.97;;;;;;;12.12;73.44;101734.16;5069639;28;20028;-72
2022/06/03 04:40:49;;;;;;;16.80;8.53;;;;;;;12.21;72.37;101733.06;5069479;28;20035;-71
2022/06/03 04:44:03;;;;;;;18.33;7.97;;;;;;;12.33;72.63;101736.06;5069594;28;20642;-71
2022/06/03 04:47:05;;;;;;;10.60;7.38;;;;;;;12.46;72.35;101738.09;5069007;28;20068;-71
2022/06/03 04:50:08;;;;;;;12.77;7.33;;;;;;;12.46;71.88;101740.75;5069489;28;20077;-72
2022/06/03 04:53:01;;;;;;;12.07;7.43;;;;;;;12.43;72.49;101744.63;5069230;28;20030;-71
2022/06/03 04:55:57;;;;;;;11.70;7.85;;;;;;;12.48;72.64;101742.22;5068580;28;20499;-71
2022/06/03 04:58:41;;;;;;;10.27;6.68;;;;;;;12.54;71.75;101748.69;5069023;28;20038;-71
2022/06/03 05:01:36;;;;;;;12.55;7.53;;;;;;;12.61;71.99;101746.09;5069098;28;20024;-71
2022/06/03 05:04:43;;;;;;;10.40;6.93;;;;;;;12.74;71.42;101759.63;5066931;28;20502;-71
2022/06/03 05:07:27;;;;;;;10.77;6.82;;;;;;;12.84;71.54;101757.47;5068266;28;20048;-71
2022/06/03 05:10:20;;;;;;;13.50;7.32;;;;;;;12.97;71.13;101745.22;5064543;28;20078;-71
2022/06/03 05:13:16;;;;;;;13.85;8.73;;;;;;;13.12;70.84;101748.69;5069190;28;20050;-71
2022/06/03 05:15:51;;;;;;;11.68;7.10;;;;;;;13.24;70.83;101743.66;5068741;28;20044;-71
2022/06/03 05:18:42;;;;;;;12.05;7.63;;;;;;;13.30;70.28;101751.78;5068640;28;20051;-71
2022/06/03 05:21:33;;;;;;;13.60;8.30;;;;;;;13.35;70.48;101748.53;5068897;28;20028;-71
2022/06/03 05:24:16;;;;;;;15.18;7.65;;;;;;;13.41;69.34;101747.75;5069064;28;20020;-72
2022/06/03 05:27:02;;;;;;;11.02;7.47;;;;;;;13.46;69.90;101749.84;5049793;28;20044;-71
2022/06/03 05:29:43;;;;;;;10.73;7.80;;;;;;;13.50;69.47;101748.44;5049888;28;20024;-71
2022/06/03 05:32:53;;;;;;;10.63;7.07;;;;;;;13.54;69.70;101742.47;5066932;28;20077;-71
2022/06/03 05:35:25;;;;;;;10.00;7.03;;;;;;;13.56;69.24;101743.13;5051333;28;20373;-71
2022/06/03 05:38:07;;;;;;;11.63;8.30;;;;;;;13.61;68.99;101742.56;5055867;28;20025;-71
2022/06/03 05:40:37;;;;;;;16.23;7.47;;;;;;;13.59;68.71;101748.09;5031417;28;20435;-71
2022/06/03 05:43:36;;;;;;;11.52;6.63;;;;;;;13.57;69.36;101734.06;5049508;28;20029;-71
2022/06/03 05:46:43;;;;;;;10.65;7.38;;;;;;;13.64;68.80;101736.78;5049631;28;20029;-71
2022/06/03 05:49:14;;;;;;;11.07;7.40;;;;;;;13.66;69.23;101742.78;5038761;28;20044;-71
2022/06/03 05:52:03;;;;;;;10.60;7.25;;;;;;;13.71;68.16;101737.69;5049501;28;20035;-72
2022/06/03 05:54:49;;;;;;;11.95;7.78;;;;;;;13.73;68.32;101734.81;5049185;28;20060;-71
2022/06/03 05:57:27;;;;;;;12.25;7.10;;;;;;;13.90;68.81;101729.97;5049360;28;20116;-71
2022/06/03 06:00:02;;;;;;;10.35;6.93;;;;;;;14.47;66.31;101742.22;5052364;28;20025;-71
2022/06/03 06:03:11;;;;;;;13.48;8.07;;;;;;;15.00;65.81;101736.19;5053501;28;20534;-71
2022/06/03 06:05:52;;;;;;;11.60;6.95;;;;;;;15.51;63.94;101735.59;4971805;28;20030;-71
2022/06/03 06:08:35;;;;;;;12.00;7.75;;;;;;;15.71;62.44;101739.13;4971835;28;20089;-71
2022/06/03 06:11:19;;;;;;;8.95;6.68;;;;;;;15.62;61.11;101739.53;5026472;28;20502;-71
2022/06/03 06:14:21;;;;;;;11.07;7.78;;;;;;;15.24;63.25;101738.28;5053173;28;20033;-71
2022/06/03 06:16:47;;;;;;;11.90;7.18;;;;;;;15.00;64.19;101739.72;5053352;28;20025;-71
2022/06/03 06:19:37;;;;;;;10.18;6.90;;;;;;;14.91;64.77;101746.31;5053234;28;20021;-71
2022/06/03 06:22:17;;;;;;;12.20;7.53;;;;;;;14.81;64.46;101740.50;5053000;28;20033;-72
2022/06/03 06:24:45;;;;;;;11.00;6.95;;;;;;;14.72;64.75;101739.84;5053028;28;20024;-71
2022/06/03 06:27:29;;;;;;;9.80;7.00;;;;;;;14.71;65.87;101745.44;5052968;28;20109;-71
2022/06/03 06:30:25;;;;;;;10.90;7.18;;;;;;;14.72;66.66;101744.38;5052583;28;20151;-71
2022/06/03 06:33:17;;;;;;;11.25;7.25;;;;;;;14.69;66.11;101741.06;5052852;28;20093;-71
2022/06/03 06:35:51;;;;;;;12.07;7.30;;;;;;;14.72;66.31;101742.53;5052978;28;20028;-71
2022/06/03 06:38:47;;;;;;;15.30;8.13;;;;;;;14.70;65.29;101739.25;5052840;28;20025;-71
2022/06/03 06:41:28;;;;;;;11.38;7.20;;;;;;;14.71;65.93;101737.38;5052195;28;20029;-71
2022/06/03 06:43:59;;;;;;;12.75;8.18;;;;;;;14.73;66.38;101741.53;5052169;28;20495;-71
2022/06/03 06:46:44;;;;;;;11.60;7.60;;;;;;;14.75;66.37;101739.47;5035009;28;20737;-70
2022/06/03 06:49:54;;;;;;;14.40;8.77;;;;;;;14.89;65.55;101743.00;5051782;28;20052;-71
2022/06/03 06:52:47;;;;;;;12.88;7.30;;;;;;;14.92;65.89;101734.53;4971330;28;20031;-72
2022/06/03 06:55:25;;;;;;;12.40;7.85;;;;;;;14.96;65.21;101738.47;4971094;28;20518;-72
2022/06/03 06:58:02;;;;;;;11.43;7.53;;;;;;;15.01;65.06;101744.06;5034396;28;20044;-71
2022/06/03 07:00:34;;;;;;;11.27;7.18;;;;;;;15.06;65.70;101743.44;5052413;28;20369;-71
2022/06/03 07:03:27;;;;;;;12.95;7.50;;;;;;;15.17;65.57;101734.78;5052235;28;20104;-71
2022/06/03 07:06:12;;;;;;;15.35;7.72;;;;;;;15.26;65.48;101728.16;5052254;28;20028;-71
2022/06/03 07:09:14;;;;;;;9.10;6.57;;;;;;;15.39;64.68;101730.03;5052295;28;20029;-66
2022/06/03 07:11:58;;;;;;;11.88;7.90;;;;;;;15.47;64.50;101739.75;5051131;28;20079;-65
2022/06/03 07:14:31;;;;;;;13.43;8.77;;;;;;;15.49;62.67;101737.69;5051681;28;20025;-65
2022/06/03 07:20:10;;;;;;;12.23;8.38;;;;;;;15.63;64.88;101739.31;5035291;28;20041;-65
2022/06/03 07:22:55;;;;;;;11.73;7.80;;;;;;;15.68;64.22;101738.69;5055275;28;20961;-66
2022/06/03 07:25:31;;;;;;;11.70;7.13;;;;;;;15.74;63.63;101727.94;5071007;28;20025;-65
2022/06/03 07:28:22;;;;;;;11.73;7.97;;;;;;;15.83;64.90;101725.88;5071139;28;20039;-65
2022/06/03 07:30:53;;;;;;;11.27;7.25;;;;;;;15.92;62.71;101726.47;5071038;28;20387;-65
2022/06/03 07:33:31;;;;;;;;;;;;;;;16.02;63.76;101726.88;5053420;28;20028;-65
2022/06/03 07:36:08;;;;;;;12.23;7.78;;;;;;;16.11;62.08;101720.22;5070839;28;19917;-65
2022/06/03 07:38:46;;;;;;;12.90;7.63;;;;;;;16.17;62.02;101723.94;5070719;28;20032;-65
2022/06/03 07:41:20;;;;;;;12.52;7.05;;;;;;;16.21;62.40;101720.59;5070322;28;20044;-65
2022/06/03 07:44:08;;;;;;;11.25;8.05;;;;;;;16.26;61.44;101721.81;5069509;28;20040;-65
2022/06/03 07:46:54;;;;;;;12.25;8.35;;;;;;;16.32;62.13;101720.97;5070703;28;20434;-65
2022/06/03 07:49:25;;;;;;;11.18;7.22;;;;;;;16.42;60.82;101727.53;5052695;28;20446;-65
2022/06/03 07:52:13;;;;;;;10.80;7.10;;;;;;;16.50;61.74;101714.88;5070500;28;20078;-65
2022/06/03 07:54:51;;;;;;;12.15;7.47;;;;;;;16.60;61.35;101718.75;5070369;28;20052;-65
2022/06/03 07:57:22;;;;;;;17.50;8.70;;;;;;;16.83;61.59;101704.78;5070684;28;20036;-65
2022/06/03 07:59:48;;;;;;;11.20;8.13;;;;;;;16.95;60.14;101707.63;5070431;28;20055;-65
2022/06/03 08:02:17;;;;;;;10.52;7.35;;;;;;;17.03;60.21;101707.34;5050911;28;20044;-65
2022/06/03 08:04:45;;;;;;;9.82;7.45;;;;;;;17.16;58.29;101705.56;5070807;28;20375;-65
2022/06/03 08:13:16;;;;;;;18.00;6.88;;;;;;;23.47;43.78;101704.41;5070232;28;20032;-66
2022/06/03 08:16:13;;;;;;;9.00;6.32;;;;;;;25.13;40.68;101689.97;5070197;28;20380;-66
2022/06/03 08:18:42;;;;;;;9.50;6.97;;;;;;;26.87;36.01;101692.84;5047933;28;20040;-66
2022/06/03 08:21:11;;;;;;;10.65;6.97;;;;;;;27.43;34.87;101690.72;5069969;28;20047;-66
2022/06/03 08:23:37;;;;;;;9.32;6.82;;;;;;;27.64;34.24;101692.16;5069107;28;20103;-65
2022/06/03 08:26:08;;;;;;;9.23;6.07;;;;;;;27.60;33.82;101688.34;5070008;28;20536;-66
2022/06/03 08:28:37;;;;;;;11.07;7.50;;;;;;;28.11;33.44;101674.06;5069813;28;20020;-65
2022/06/03 08:31:05;;;;;;;9.80;6.63;;;;;;;28.69;32.48;101675.69;5069891;28;20048;-66
2022/06/03 08:33:42;;;;;;;7.47;5.55;;;;;;;28.91;33.29;101666.00;5069821;28;20471;-66
2022/06/03 08:36:12;;;;;;;9.73;5.90;;;;;;;28.57;31.99;101675.34;5069746;28;20472;-66
2022/06/03 08:38:48;;;;;;;7.63;6.00;;;;;;;28.64;31.58;101675.78;5069863;28;20796;-65
2022/06/03 08:41:36;;;;;;;8.38;5.57;;;;;;;27.95;31.99;101675.34;5069539;28;20347;-65
2022/06/03 08:44:13;;;;;;;12.80;6.30;;;;;;;26.88;33.24;101682.69;5069579;28;20040;-66
2022/06/03 08:47:00;;;;;;;11.63;5.47;;;;;;;25.92;37.40;101685.75;5051663;28;20020;-66
2022/06/03 08:49:36;;;;;;;8.80;5.47;;;;;;;26.11;35.49;101683.19;5069576;28;20035;-66
2022/06/03 08:52:08;;;;;;;7.35;5.13;;;;;;;27.03;34.48;101682.56;5069411;28;20497;-66
2022/06/03 08:54:43;;;;;;;9.02;5.93;;;;;;;27.16;33.09;101683.03;5069357;28;20480;-66
2022/06/03 08:57:27;;;;;;;6.78;4.93;;;;;;;27.45;33.56;101683.03;5069321;28;20024;-66
2022/06/03 09:00:01;;;;;;;7.03;5.60;;;;;;;27.73;33.19;101679.44;5069217;28;20021;-65
2022/06/03 09:02:37;;;;;;;7.47;5.70;;;;;;;27.05;35.14;101685.03;5069600;28;20032;-66
2022/06/03 09:05:09;;;;;;;8.65;6.13;;;;;;;25.55;36.93;101667.81;5050012;28;20083;-65
2022/06/03 09:07:45;;;;;;;9.13;6.20;;;;;;;24.44;39.42;101675.75;5050133;28;20021;-65
2022/06/03 09:10:22;;;;;;;8.38;5.82;;;;;;;23.52;40.75;101679.94;5050047;28;20029;-65
2022/06/03 09:12:53;;;;;;;9.10;5.90;;;;;;;22.78;41.66;101672.56;5050034;28;20029;-66
2022/06/03 09:15:25;;;;;;;9.07;6.03;;;;;;;22.15;43.77;101678.41;5050432;28;20029;-66
2022/06/03 09:18:06;;;;;;;11.00;6.05;;;;;;;21.87;44.54;101677.50;5050008;28;20039;-66
2022/06/03 09:20:42;;;;;;;9.73;6.23;;;;;;;21.56;43.84;101672.75;5049962;28;20488;-66
2022/06/03 09:23:12;;;;;;;6.63;4.65;;;;;;;21.28;43.87;101679.09;5049900;28;20033;-65
2022/06/03 09:25:44;;;;;;;7.38;5.05;;;;;;;21.10;45.03;101674.75;5049872;28;20060;-66
2022/06/03 09:28:15;;;;;;;5.30;4.40;;;;;;;21.01;46.53;101669.75;5049732;28;20025;-65
2022/06/03 09:30:41;;;;;;;8.10;5.45;;;;;;;20.98;45.44;101672.94;5049524;28;20025;-65
2022/06/03 09:33:11;;;;;;;6.47;5.07;;;;;;;20.95;44.55;101667.19;5068358;28;20034;-65
2022/06/03 09:35:41;;;;;;;7.50;4.82;;;;;;;20.86;44.54;101684.94;5068991;28;20043;-65
2022/06/03 09:38:09;;;;;;;6.80;4.70;;;;;;;20.85;45.89;101667.00;5068936;28;20020;-66
2022/06/03 09:40:42;;;;;;;5.18;4.00;;;;;;;20.93;44.65;101666.59;5068653;28;20077;-66
2022/06/03 09:43:21;;;;;;;5.50;4.40;;;;;;;20.99;44.17;101674.59;5068878;28;20029;-66
2022/06/03 09:45:51;;;;;;;5.78;4.13;;;;;;;21.11;44.50;101651.97;5043537;28;20124;-65
2022/06/03 09:48:20;;;;;;;6.50;4.30;;;;;;;21.17;45.97;101653.72;5068769;28;20107;-66
2022/06/03 09:50:49;;;;;;;6.25;4.78;;;;;;;21.18;45.43;101658.06;5068628;28;20472;-66
2022/06/03 09:53:19;;;;;;;8.73;6.00;;;;;;;21.13;44.05;101653.38;5068672;28;20490;-66
2022/06/03 09:55:53;;;;;;;6.93;4.18;;;;;;;21.17;43.89;101651.81;5068326;28;20070;-66
2022/06/03 09:58:23;;;;;;;9.73;4.47;;;;;;;21.27;44.03;101663.88;5068607;28;20020;-66
2022/06/03 10:00:51;;;;;;;4.43;3.47;;;;;;;21.34;43.67;101657.22;5068245;28;20085;-66
2022/06/03 10:03:18;;;;;;;9.93;3.53;;;;;;;21.42;44.17;101658.72;5061494;28;20036;-66
2022/06/03 10:05:48;;;;;;;6.82;4.13;;;;;;;21.52;43.61;101660.75;5053838;28;20111;-74
2022/06/03 10:08:17;;;;;;;4.28;3.53;;;;;;;21.54;43.21;101655.91;5049357;28;20464;-72
2022/06/03 10:13:31;;;;;;;4.25;3.35;;;;;;;21.63;40.80;101649.78;5049577;28;20063;-66
2022/06/03 10:15:59;;;;;;;4.00;3.38;;;;;;;21.71;42.13;101639.56;5049273;28;20029;-66
2022/06/03 10:18:39;;;;;;;4.75;2.90;;;;;;;21.83;42.76;101642.97;5049332;28;20024;-66
2022/06/03 10:21:04;;;;;;;5.40;3.17;;;;;;;21.98;42.62;101645.88;5049199;28;20212;-65
2022/06/03 10:23:35;;;;;;;4.30;3.43;;;;;;;22.06;41.26;101640.00;5049312;28;20507;-65
2022/06/03 10:26:01;;;;;;;7.88;4.18;;;;;;;22.13;41.26;101642.50;5049267;28;20271;-66
2022/06/03 10:28:35;;;;;;;6.68;4.47;;;;;;;22.15;41.42;101636.84;5031228;28;20159;-66
2022/06/03 10:31:06;;;;;;;9.32;3.30;;;;;;;22.13;40.21;101631.63;5049144;28;20028;-66
2022/06/03 10:33:33;;;;;;;4.53;3.08;;;;;;;22.06;39.14;101629.13;5049188;28;20107;-65
2022/06/03 10:36:00;;;;;;;2.85;2.08;;;;;;;22.13;38.27;101623.50;5049091;28;20025;-66
2022/06/03 10:38:34;;;;;;;2.10;1.90;;;;;;;22.23;37.96;101615.47;5049132;28;20419;-66
2022/06/03 10:41:11;;;;;;;3.20;2.22;;;;;;;22.30;38.95;101618.81;5068144;28;20028;-66
2022/06/03 10:43:37;;;;;;;2.30;2.10;;;;;;;22.41;38.46;101618.94;5068207;28;20040;-65
2022/06/03 10:46:15;;;;;;;2.47;2.28;;;;;;;22.38;36.96;101616.72;5069589;28;20039;-65
2022/06/03 10:48:41;;;;;;;2.70;2.40;;;;;;;22.39;37.58;101607.47;5071950;28;20036;-66
2022/06/03 11:02:34;;;;;;;3.08;2.78;;;;;;;22.89;38.09;101606.28;5071729;28;20059;-66
2022/06/03 11:05:14;;;;;;;6.40;2.65;;;;;;;22.98;38.80;101602.03;5071623;28;20078;-66
2022/06/03 11:07:40;;;;;;;3.22;2.40;;;;;;;23.09;38.13;101614.63;5071347;28;20029;-66
2022/06/03 11:10:13;;;;;;;3.53;2.78;;;;;;;23.13;38.77;101612.19;5071484;28;20415;-65
2022/06/03 11:12:39;;;;;;;3.33;2.70;;;;;;;23.19;37.98;101608.44;5071441;28;20040;-66
2022/06/03 11:15:31;;;;;;;2.55;2.10;;;;;;;23.14;36.79;101606.47;5071372;28;20028;-73
2022/06/03 11:17:59;;;;;;;2.60;2.40;;;;;;;23.13;33.64;101602.13;5071221;28;20064;-73
2022/06/03 11:20:38;;;;;;;2.58;2.38;;;;;;;23.21;36.17;101598.06;5071267;28;20078;-73
2022/06/03 11:23:07;;;;;;;5.80;2.15;;;;;;;23.34;37.26;101597.63;5051648;28;20041;-72
2022/06/03 11:25:35;;;;;;;5.70;2.20;;;;;;;23.48;35.99;101592.50;5051606;28;20542;-72
2022/06/03 11:28:06;;;;;;;1.92;1.80;;;;;;;23.56;35.05;101594.72;5071216;28;20082;-73
2022/06/03 11:30:48;;;;;;;3.95;2.88;;;;;;;23.68;35.27;101586.31;5071159;28;20025;-73
2022/06/03 11:33:18;;;;;;;2.92;2.65;;;;;;;23.55;34.57;101584.09;5051876;28;20104;-74
2022/06/03 11:36:12;;;;;;;3.38;2.05;;;;;;;23.45;36.15;101578.59;5051880;28;20052;-73
2022/06/03 11:38:51;;;;;;;3.13;2.40;;;;;;;23.43;35.53;101580.78;5042414;28;20049;-73
2022/06/03 11:41:24;;;;;;;4.10;2.92;;;;;;;23.44;33.66;101582.41;5033699;28;20025;-73
2022/06/03 11:44:09;;;;;;;2.42;2.22;;;;;;;23.43;34.43;101578.88;5070753;28;20047;-73
2022/06/03 11:46:43;;;;;;;2.55;2.20;;;;;;;23.33;34.43;101587.00;5070810;28;20032;-73
2022/06/03 11:49:09;;;;;;;3.20;2.90;;;;;;;23.23;34.58;101570.59;5070743;28;20029;-73
2022/06/03 11:51:36;;;;;;;2.40;2.20;;;;;;;23.25;35.43;101574.69;5070695;28;20020;-73
2022/06/03 11:54:02;;;;;;;6.15;2.50;;;;;;;23.31;36.34;101562.75;5070486;28;20060;-73
2022/06/03 11:56:33;;;;;;;3.55;2.35;;;;;;;23.33;35.25;101557.03;5070439;28;20032;-73
2022/06/03 11:59:05;;;;;;;3.80;2.80;;;;;;;23.55;34.71;101568.59;5070579;28;20036;-65
2022/06/03 12:01:41;;;;;;;6.43;2.65;;;;;;;23.63;35.52;101575.41;5070458;28;20449;-66
2022/06/03 12:04:19;;;;;;;2.83;2.60;;;;;;;23.70;36.90;101575.97;5070415;28;20031;-66
2022/06/03 12:06:49;;;;;;;5.35;3.08;;;;;;;23.80;34.40;101578.78;5070460;28;20021;-66
2022/06/03 12:09:50;;;;;;;4.03;2.28;;;;;;;23.92;35.83;101586.72;5070184;28;20115;-66
2022/06/03 12:15:52;;;;;;;2.67;1.92;;;;;;;24.15;36.16;101573.69;5070449;28;20054;-66
2022/06/03 12:18:32;;;;;;;4.80;2.45;;;;;;;24.19;34.14;101583.78;5070174;28;20032;-66
2022/06/03 12:21:03;;;;;;;3.50;2.47;;;;;;;24.15;33.70;101585.38;5070009;28;20043;-67
2022/06/03 12:23:28;;;;;;;3.83;2.47;;;;;;;24.17;33.18;101569.59;5070100;28;20544;-67
2022/06/03 12:25:54;;;;;;;4.43;2.33;;;;;;;24.28;34.34;101568.50;5069959;28;20108;-67
2022/06/03 12:28:38;;;;;;;2.72;2.53;;;;;;;24.23;35.58;101571.25;5069992;28;20273;-67
2022/06/03 12:31:19;;;;;;;3.05;2.75;;;;;;;24.17;33.97;101558.69;5069949;28;20028;-67
2022/06/03 12:33:44;;;;;;;3.03;2.50;;;;;;;24.38;34.89;101564.97;5069757;28;20025;-67
2022/06/03 12:36:25;;;;;;;4.20;2.53;;;;;;;24.28;33.50;101554.88;5069924;28;20017;-65
2022/06/03 12:39:12;;;;;;;2.45;2.25;;;;;;;24.15;33.58;101555.41;5050597;28;20039;-65
2022/06/03 12:41:46;;;;;;;2.45;2.25;;;;;;;24.12;34.53;101546.97;5032615;28;20437;-65
2022/06/03 12:44:36;;;;;;;2.88;2.42;;;;;;;24.01;34.19;101555.13;5050555;28;20032;-65
2022/06/03 12:47:34;;;;;;;3.00;2.45;;;;;;;24.19;35.32;101544.81;5050568;28;20017;-65
2022/06/03 12:50:24;;;;;;;2.15;1.98;;;;;;;24.42;35.03;101554.38;5006061;28;21090;-65
2022/06/03 12:52:55;;;;;;;4.43;2.35;;;;;;;24.61;31.59;101550.00;5050397;28;20044;-64
2022/06/03 12:55:25;;;;;;;4.17;2.80;;;;;;;24.81;31.89;101542.88;5050136;28;20203;-72